sensor_id;sensor_type;location;lat;lon;timestamp;P1;durP1;ratioP1;P2;durP2;ratioP2
45318;SDS011;31057;48.498;32.260;2023-01-08T00:00:05;18.10;;;8.85;;
45318;SDS011;31057;48.498;32.260;2023-01-08T00:02:08;15.55;;;9.93;;
45318;SDS011;31057;48.498;32.260;2023-01-08T00:04:10;16.13;;;9.40;;
45318;SDS011;31057;48.498;32.260;2023-01-08T00:06:14;21.67;;;10.65;;
45318;SDS011;31057;48.498;32.260;2023-01-08T00:08:17;14.88;;;8.68;;
45318;SDS011;31057;48.498;32.260;2023-01-08T00:10:20;14.57;;;8.85;;
45318;SDS011;31057;48.498;32.260;2023-01-08T00:12:23;18.20;;;9.40;;
45318;SDS011;31057;48.498;32.260;2023-01-08T00:14:25;14.60;;;8.52;;
45318;SDS011;31057;48.498;32.260;2023-01-08T00:16:28;15.82;;;8.18;;
45318;SDS011;31057;48.498;32.260;2023-01-08T00:18:30;13.73;;;8.13;;
45318;SDS011;31057;48.498;32.260;2023-01-08T00:20:32;17.08;;;9.35;;
45318;SDS011;31057;48.498;32.260;2023-01-08T00:22:36;15.50;;;8.88;;
45318;SDS011;31057;48.498;32.260;2023-01-08T00:24:38;14.90;;;9.10;;
45318;SDS011;31057;48.498;32.260;2023-01-08T00:26:40;21.70;;;10.65;;
45318;SDS011;31057;48.498;32.260;2023-01-08T00:28:42;18.88;;;10.43;;
45318;SDS011;31057;48.498;32.260;2023-01-08T00:30:44;24.65;;;10.85;;
45318;SDS011;31057;48.498;32.260;2023-01-08T00:32:46;17.15;;;9.55;;
45318;SDS011;31057;48.498;32.260;2023-01-08T00:34:48;24.60;;;11.18;;
45318;SDS011;31057;48.498;32.260;2023-01-08T00:36:50;19.80;;;10.10;;
45318;SDS011;31057;48.498;32.260;2023-01-08T00:38:52;19.95;;;11.15;;
45318;SDS011;31057;48.498;32.260;2023-01-08T00:40:54;23.88;;;12.80;;
45318;SDS011;31057;48.498;32.260;2023-01-08T00:42:56;19.02;;;11.13;;
45318;SDS011;31057;48.498;32.260;2023-01-08T00:44:58;23.92;;;12.15;;
45318;SDS011;31057;48.498;32.260;2023-01-08T00:47:00;20.60;;;11.35;;
45318;SDS011;31057;48.498;32.260;2023-01-08T00:49:02;20.25;;;10.98;;
45318;SDS011;31057;48.498;32.260;2023-01-08T00:51:04;30.40;;;13.43;;
45318;SDS011;31057;48.498;32.260;2023-01-08T00:53:07;22.17;;;11.88;;
45318;SDS011;31057;48.498;32.260;2023-01-08T00:55:09;28.73;;;13.15;;
45318;SDS011;31057;48.498;32.260;2023-01-08T00:57:11;25.85;;;13.75;;
45318;SDS011;31057;48.498;32.260;2023-01-08T00:59:13;23.67;;;12.73;;
45318;SDS011;31057;48.498;32.260;2023-01-08T01:01:15;26.58;;;11.73;;
45318;SDS011;31057;48.498;32.260;2023-01-08T01:03:18;31.70;;;13.07;;
45318;SDS011;31057;48.498;32.260;2023-01-08T01:05:20;27.88;;;12.50;;
45318;SDS011;31057;48.498;32.260;2023-01-08T01:07:22;32.47;;;12.75;;
45318;SDS011;31057;48.498;32.260;2023-01-08T01:09:24;31.98;;;13.75;;
45318;SDS011;31057;48.498;32.260;2023-01-08T01:11:26;31.52;;;13.70;;
45318;SDS011;31057;48.498;32.260;2023-01-08T01:13:28;23.38;;;11.63;;
45318;SDS011;31057;48.498;32.260;2023-01-08T01:15:30;25.55;;;12.90;;
45318;SDS011;31057;48.498;32.260;2023-01-08T01:17:32;23.65;;;10.43;;
45318;SDS011;31057;48.498;32.260;2023-01-08T01:19:35;21.70;;;11.32;;
45318;SDS011;31057;48.498;32.260;2023-01-08T01:21:37;23.38;;;12.23;;
45318;SDS011;31057;48.498;32.260;2023-01-08T01:23:39;26.10;;;11.05;;
45318;SDS011;31057;48.498;32.260;2023-01-08T01:25:41;23.35;;;11.20;;
45318;SDS011;31057;48.498;32.260;2023-01-08T01:27:46;21.38;;;10.55;;
45318;SDS011;31057;48.498;32.260;2023-01-08T01:29:48;17.48;;;10.85;;
45318;SDS011;31057;48.498;32.260;2023-01-08T01:31:51;17.67;;;10.30;;
45318;SDS011;31057;48.498;32.260;2023-01-08T01:33:53;18.88;;;9.98;;
45318;SDS011;31057;48.498;32.260;2023-01-08T01:35:59;21.38;;;12.52;;
45318;SDS011;31057;48.498;32.260;2023-01-08T01:38:02;25.33;;;12.40;;
45318;SDS011;31057;48.498;32.260;2023-01-08T01:40:04;26.08;;;12.40;;
45318;SDS011;31057;48.498;32.260;2023-01-08T01:42:08;19.35;;;11.63;;
45318;SDS011;31057;48.498;32.260;2023-01-08T01:44:45;21.38;;;10.85;;
45318;SDS011;31057;48.498;32.260;2023-01-08T01:46:47;26.73;;;11.38;;
45318;SDS011;31057;48.498;32.260;2023-01-08T01:48:50;25.52;;;11.85;;
45318;SDS011;31057;48.498;32.260;2023-01-08T01:50:56;22.00;;;12.32;;
45318;SDS011;31057;48.498;32.260;2023-01-08T01:53:44;21.95;;;12.02;;
45318;SDS011;31057;48.498;32.260;2023-01-08T01:55:26;22.33;;;10.90;;
45318;SDS011;31057;48.498;32.260;2023-01-08T01:57:29;24.77;;;10.30;;
45318;SDS011;31057;48.498;32.260;2023-01-08T01:59:33;27.42;;;13.10;;
45318;SDS011;31057;48.498;32.260;2023-01-08T02:01:35;19.50;;;11.32;;
45318;SDS011;31057;48.498;32.260;2023-01-08T02:03:38;21.92;;;10.82;;
45318;SDS011;31057;48.498;32.260;2023-01-08T02:07:55;26.42;;;11.73;;
45318;SDS011;31057;48.498;32.260;2023-01-08T02:19:57;21.33;;;11.15;;
45318;SDS011;31057;48.498;32.260;2023-01-08T02:22:32;21.60;;;9.38;;
45318;SDS011;31057;48.498;32.260;2023-01-08T02:27:08;23.88;;;10.60;;
45318;SDS011;31057;48.498;32.260;2023-01-08T02:29:16;19.90;;;11.07;;
45318;SDS011;31057;48.498;32.260;2023-01-08T02:31:21;21.60;;;11.07;;
45318;SDS011;31057;48.498;32.260;2023-01-08T02:33:26;19.85;;;10.52;;
45318;SDS011;31057;48.498;32.260;2023-01-08T02:35:36;21.65;;;11.60;;
45318;SDS011;31057;48.498;32.260;2023-01-08T02:37:51;17.63;;;9.23;;
45318;SDS011;31057;48.498;32.260;2023-01-08T02:42:27;20.38;;;10.55;;
45318;SDS011;31057;48.498;32.260;2023-01-08T02:44:57;18.63;;;10.90;;
45318;SDS011;31057;48.498;32.260;2023-01-08T02:47:04;19.17;;;9.88;;
45318;SDS011;31057;48.498;32.260;2023-01-08T02:49:10;20.63;;;11.10;;
45318;SDS011;31057;48.498;32.260;2023-01-08T02:53:27;22.25;;;11.60;;
45318;SDS011;31057;48.498;32.260;2023-01-08T02:55:35;24.02;;;11.40;;
45318;SDS011;31057;48.498;32.260;2023-01-08T02:57:41;18.98;;;11.38;;
45318;SDS011;31057;48.498;32.260;2023-01-08T02:59:43;18.83;;;9.90;;
45318;SDS011;31057;48.498;32.260;2023-01-08T03:01:47;19.33;;;10.88;;
45318;SDS011;31057;48.498;32.260;2023-01-08T03:03:50;23.23;;;10.35;;
45318;SDS011;31057;48.498;32.260;2023-01-08T03:06:06;18.48;;;10.25;;
45318;SDS011;31057;48.498;32.260;2023-01-08T03:08:13;23.80;;;11.60;;
45318;SDS011;31057;48.498;32.260;2023-01-08T03:10:16;15.98;;;10.15;;
45318;SDS011;31057;48.498;32.260;2023-01-08T03:12:25;21.92;;;11.13;;
45318;SDS011;31057;48.498;32.260;2023-01-08T03:14:54;24.40;;;11.30;;
45318;SDS011;31057;48.498;32.260;2023-01-08T03:17:08;23.52;;;8.85;;
45318;SDS011;31057;48.498;32.260;2023-01-08T03:19:19;20.52;;;11.13;;
45318;SDS011;31057;48.498;32.260;2023-01-08T03:21:23;25.48;;;11.73;;
45318;SDS011;31057;48.498;32.260;2023-01-08T03:23:26;19.15;;;8.50;;
45318;SDS011;31057;48.498;32.260;2023-01-08T03:25:29;23.13;;;11.48;;
45318;SDS011;31057;48.498;32.260;2023-01-08T03:27:31;18.70;;;10.98;;
45318;SDS011;31057;48.498;32.260;2023-01-08T03:29:36;20.08;;;9.68;;
45318;SDS011;31057;48.498;32.260;2023-01-08T03:31:40;21.27;;;11.18;;
45318;SDS011;31057;48.498;32.260;2023-01-08T03:33:45;16.00;;;9.50;;
45318;SDS011;31057;48.498;32.260;2023-01-08T03:35:49;26.73;;;11.00;;
45318;SDS011;31057;48.498;32.260;2023-01-08T03:37:59;17.35;;;9.68;;
45318;SDS011;31057;48.498;32.260;2023-01-08T03:40:11;17.08;;;10.13;;
45318;SDS011;31057;48.498;32.260;2023-01-08T03:42:18;20.85;;;11.82;;
45318;SDS011;31057;48.498;32.260;2023-01-08T03:44:21;19.92;;;10.27;;
45318;SDS011;31057;48.498;32.260;2023-01-08T03:46:33;16.75;;;9.93;;
45318;SDS011;31057;48.498;32.260;2023-01-08T03:48:39;17.83;;;10.10;;
45318;SDS011;31057;48.498;32.260;2023-01-08T03:50:42;23.67;;;11.32;;
45318;SDS011;31057;48.498;32.260;2023-01-08T03:52:44;18.83;;;10.38;;
45318;SDS011;31057;48.498;32.260;2023-01-08T03:54:46;21.10;;;10.23;;
45318;SDS011;31057;48.498;32.260;2023-01-08T03:56:48;17.40;;;10.48;;
45318;SDS011;31057;48.498;32.260;2023-01-08T03:58:49;24.55;;;11.05;;
45318;SDS011;31057;48.498;32.260;2023-01-08T04:00:51;23.75;;;10.75;;
45318;SDS011;31057;48.498;32.260;2023-01-08T04:02:53;23.33;;;10.80;;
45318;SDS011;31057;48.498;32.260;2023-01-08T04:04:55;22.05;;;9.93;;
45318;SDS011;31057;48.498;32.260;2023-01-08T04:06:57;21.60;;;11.32;;
45318;SDS011;31057;48.498;32.260;2023-01-08T04:09:00;21.20;;;8.93;;
45318;SDS011;31057;48.498;32.260;2023-01-08T04:11:02;21.13;;;10.00;;
45318;SDS011;31057;48.498;32.260;2023-01-08T04:13:04;23.70;;;10.25;;
45318;SDS011;31057;48.498;32.260;2023-01-08T04:15:06;20.85;;;10.23;;
45318;SDS011;31057;48.498;32.260;2023-01-08T04:17:11;18.35;;;9.73;;
45318;SDS011;31057;48.498;32.260;2023-01-08T04:19:13;22.15;;;10.48;;
45318;SDS011;31057;48.498;32.260;2023-01-08T04:21:16;19.90;;;9.20;;
45318;SDS011;31057;48.498;32.260;2023-01-08T04:23:18;18.27;;;9.77;;
45318;SDS011;31057;48.498;32.260;2023-01-08T04:25:19;17.13;;;10.02;;
45318;SDS011;31057;48.498;32.260;2023-01-08T04:27:21;19.52;;;11.13;;
45318;SDS011;31057;48.498;32.260;2023-01-08T04:29:23;14.40;;;8.02;;
45318;SDS011;31057;48.498;32.260;2023-01-08T04:31:25;18.73;;;9.80;;
45318;SDS011;31057;48.498;32.260;2023-01-08T04:33:27;17.13;;;10.23;;
45318;SDS011;31057;48.498;32.260;2023-01-08T04:35:29;16.80;;;10.93;;
45318;SDS011;31057;48.498;32.260;2023-01-08T04:37:31;18.23;;;9.52;;
45318;SDS011;31057;48.498;32.260;2023-01-08T04:39:34;17.13;;;9.93;;
45318;SDS011;31057;48.498;32.260;2023-01-08T04:41:36;21.67;;;10.48;;
45318;SDS011;31057;48.498;32.260;2023-01-08T04:43:38;19.35;;;10.50;;
45318;SDS011;31057;48.498;32.260;2023-01-08T04:45:40;17.27;;;10.23;;
45318;SDS011;31057;48.498;32.260;2023-01-08T04:47:42;15.38;;;9.30;;
45318;SDS011;31057;48.498;32.260;2023-01-08T04:49:44;22.50;;;10.82;;
45318;SDS011;31057;48.498;32.260;2023-01-08T04:51:45;19.08;;;11.10;;
45318;SDS011;31057;48.498;32.260;2023-01-08T04:53:47;15.95;;;9.00;;
45318;SDS011;31057;48.498;32.260;2023-01-08T04:55:49;19.58;;;9.60;;
45318;SDS011;31057;48.498;32.260;2023-01-08T04:57:51;18.73;;;8.38;;
45318;SDS011;31057;48.498;32.260;2023-01-08T04:59:53;15.30;;;8.18;;
45318;SDS011;31057;48.498;32.260;2023-01-08T05:01:55;30.17;;;9.15;;
45318;SDS011;31057;48.498;32.260;2023-01-08T05:03:58;19.90;;;9.23;;
45318;SDS011;31057;48.498;32.260;2023-01-08T05:06:01;21.30;;;10.48;;
45318;SDS011;31057;48.498;32.260;2023-01-08T05:08:03;15.70;;;8.75;;
45318;SDS011;31057;48.498;32.260;2023-01-08T05:10:05;21.95;;;9.95;;
45318;SDS011;31057;48.498;32.260;2023-01-08T05:12:08;19.33;;;9.60;;
45318;SDS011;31057;48.498;32.260;2023-01-08T05:14:10;19.88;;;8.65;;
45318;SDS011;31057;48.498;32.260;2023-01-08T05:16:12;19.55;;;8.75;;
45318;SDS011;31057;48.498;32.260;2023-01-08T05:18:14;19.40;;;10.27;;
45318;SDS011;31057;48.498;32.260;2023-01-08T05:20:16;28.05;;;10.80;;
45318;SDS011;31057;48.498;32.260;2023-01-08T05:22:19;26.63;;;10.85;;
45318;SDS011;31057;48.498;32.260;2023-01-08T05:24:21;20.20;;;10.13;;
45318;SDS011;31057;48.498;32.260;2023-01-08T05:26:23;15.65;;;8.40;;
45318;SDS011;31057;48.498;32.260;2023-01-08T05:28:25;22.80;;;10.73;;
45318;SDS011;31057;48.498;32.260;2023-01-08T05:30:28;17.85;;;9.90;;
45318;SDS011;31057;48.498;32.260;2023-01-08T05:32:29;21.70;;;9.30;;
45318;SDS011;31057;48.498;32.260;2023-01-08T05:34:31;23.88;;;11.60;;
45318;SDS011;31057;48.498;32.260;2023-01-08T05:36:33;21.92;;;10.70;;
45318;SDS011;31057;48.498;32.260;2023-01-08T05:38:35;19.88;;;10.57;;
45318;SDS011;31057;48.498;32.260;2023-01-08T05:40:38;19.75;;;9.75;;
45318;SDS011;31057;48.498;32.260;2023-01-08T05:42:40;18.98;;;10.52;;
45318;SDS011;31057;48.498;32.260;2023-01-08T05:44:42;18.13;;;10.93;;
45318;SDS011;31057;48.498;32.260;2023-01-08T05:46:44;25.48;;;11.35;;
45318;SDS011;31057;48.498;32.260;2023-01-08T05:48:46;27.55;;;11.25;;
45318;SDS011;31057;48.498;32.260;2023-01-08T05:50:48;24.17;;;11.40;;
45318;SDS011;31057;48.498;32.260;2023-01-08T05:52:50;27.02;;;11.10;;
45318;SDS011;31057;48.498;32.260;2023-01-08T05:54:52;17.30;;;10.88;;
45318;SDS011;31057;48.498;32.260;2023-01-08T05:56:54;18.02;;;10.55;;
45318;SDS011;31057;48.498;32.260;2023-01-08T05:58:56;18.02;;;9.93;;
45318;SDS011;31057;48.498;32.260;2023-01-08T06:01:05;17.42;;;10.65;;
45318;SDS011;31057;48.498;32.260;2023-01-08T06:03:10;18.95;;;9.80;;
45318;SDS011;31057;48.498;32.260;2023-01-08T06:05:12;18.35;;;9.90;;
45318;SDS011;31057;48.498;32.260;2023-01-08T06:07:14;17.85;;;10.70;;
45318;SDS011;31057;48.498;32.260;2023-01-08T06:09:16;24.50;;;12.25;;
45318;SDS011;31057;48.498;32.260;2023-01-08T06:11:18;21.40;;;10.73;;
45318;SDS011;31057;48.498;32.260;2023-01-08T06:13:20;22.75;;;11.68;;
45318;SDS011;31057;48.498;32.260;2023-01-08T06:15:22;22.13;;;11.02;;
45318;SDS011;31057;48.498;32.260;2023-01-08T06:17:24;22.77;;;11.23;;
45318;SDS011;31057;48.498;32.260;2023-01-08T06:19:26;21.45;;;10.88;;
45318;SDS011;31057;48.498;32.260;2023-01-08T06:21:28;20.65;;;11.05;;
45318;SDS011;31057;48.498;32.260;2023-01-08T06:23:30;19.30;;;10.90;;
45318;SDS011;31057;48.498;32.260;2023-01-08T06:25:32;23.73;;;11.05;;
45318;SDS011;31057;48.498;32.260;2023-01-08T06:27:34;16.90;;;11.57;;
45318;SDS011;31057;48.498;32.260;2023-01-08T06:29:36;16.75;;;10.15;;
45318;SDS011;31057;48.498;32.260;2023-01-08T06:31:38;20.98;;;10.27;;
45318;SDS011;31057;48.498;32.260;2023-01-08T06:33:40;18.70;;;10.70;;
45318;SDS011;31057;48.498;32.260;2023-01-08T06:35:42;24.25;;;10.63;;
45318;SDS011;31057;48.498;32.260;2023-01-08T06:37:44;29.17;;;10.80;;
45318;SDS011;31057;48.498;32.260;2023-01-08T06:39:45;21.20;;;10.55;;
45318;SDS011;31057;48.498;32.260;2023-01-08T06:41:47;24.42;;;12.15;;
45318;SDS011;31057;48.498;32.260;2023-01-08T06:43:49;22.25;;;11.45;;
45318;SDS011;31057;48.498;32.260;2023-01-08T06:45:52;20.92;;;11.52;;
45318;SDS011;31057;48.498;32.260;2023-01-08T06:47:58;22.73;;;10.93;;
45318;SDS011;31057;48.498;32.260;2023-01-08T06:50:04;24.23;;;11.27;;
45318;SDS011;31057;48.498;32.260;2023-01-08T06:52:07;28.80;;;11.70;;
45318;SDS011;31057;48.498;32.260;2023-01-08T06:54:09;25.23;;;11.80;;
45318;SDS011;31057;48.498;32.260;2023-01-08T06:56:13;17.60;;;10.15;;
45318;SDS011;31057;48.498;32.260;2023-01-08T06:58:15;23.20;;;10.70;;
45318;SDS011;31057;48.498;32.260;2023-01-08T07:00:17;18.63;;;10.55;;
45318;SDS011;31057;48.498;32.260;2023-01-08T08:14:29;26.75;;;13.80;;
45318;SDS011;31057;48.498;32.260;2023-01-08T08:16:32;24.70;;;13.25;;
45318;SDS011;31057;48.498;32.260;2023-01-08T08:18:34;22.23;;;9.80;;
45318;SDS011;31057;48.498;32.260;2023-01-08T08:24:39;16.10;;;9.57;;
45318;SDS011;31057;48.498;32.260;2023-01-08T08:26:41;28.40;;;12.50;;
45318;SDS011;31057;48.498;32.260;2023-01-08T08:28:43;18.58;;;9.90;;
45318;SDS011;31057;48.498;32.260;2023-01-08T08:30:45;26.92;;;12.73;;
45318;SDS011;31057;48.498;32.260;2023-01-08T08:32:47;18.85;;;10.50;;
45318;SDS011;31057;48.498;32.260;2023-01-08T08:34:49;18.10;;;11.43;;
45318;SDS011;31057;48.498;32.260;2023-01-08T08:38:53;19.02;;;11.68;;
45318;SDS011;31057;48.498;32.260;2023-01-08T08:40:55;21.77;;;10.77;;
45318;SDS011;31057;48.498;32.260;2023-01-08T08:42:57;20.88;;;10.25;;
45318;SDS011;31057;48.498;32.260;2023-01-08T08:45:00;19.08;;;9.57;;
45318;SDS011;31057;48.498;32.260;2023-01-08T08:47:05;23.45;;;10.63;;
45318;SDS011;31057;48.498;32.260;2023-01-08T08:49:08;19.45;;;9.98;;
45318;SDS011;31057;48.498;32.260;2023-01-08T08:51:10;22.10;;;9.27;;
45318;SDS011;31057;48.498;32.260;2023-01-08T08:53:13;18.20;;;9.27;;
45318;SDS011;31057;48.498;32.260;2023-01-08T08:55:15;20.52;;;8.50;;
45318;SDS011;31057;48.498;32.260;2023-01-08T08:57:17;18.65;;;9.70;;
45318;SDS011;31057;48.498;32.260;2023-01-08T08:59:19;16.40;;;9.15;;
45318;SDS011;31057;48.498;32.260;2023-01-08T09:01:21;21.70;;;9.18;;
45318;SDS011;31057;48.498;32.260;2023-01-08T09:03:23;18.00;;;8.45;;
45318;SDS011;31057;48.498;32.260;2023-01-08T09:05:25;18.52;;;9.90;;
45318;SDS011;31057;48.498;32.260;2023-01-08T09:07:27;19.60;;;11.70;;
45318;SDS011;31057;48.498;32.260;2023-01-08T09:09:30;17.17;;;10.63;;
45318;SDS011;31057;48.498;32.260;2023-01-08T09:11:31;17.17;;;8.32;;
45318;SDS011;31057;48.498;32.260;2023-01-08T09:13:35;16.25;;;9.70;;
45318;SDS011;31057;48.498;32.260;2023-01-08T09:15:37;22.42;;;10.70;;
45318;SDS011;31057;48.498;32.260;2023-01-08T09:17:40;23.55;;;9.82;;
45318;SDS011;31057;48.498;32.260;2023-01-08T09:21:43;17.48;;;10.25;;
45318;SDS011;31057;48.498;32.260;2023-01-08T09:23:46;22.55;;;10.23;;
45318;SDS011;31057;48.498;32.260;2023-01-08T09:25:49;20.30;;;11.90;;
45318;SDS011;31057;48.498;32.260;2023-01-08T09:27:59;22.05;;;10.35;;
45318;SDS011;31057;48.498;32.260;2023-01-08T09:30:08;20.30;;;10.65;;
45318;SDS011;31057;48.498;32.260;2023-01-08T09:32:11;20.55;;;10.25;;
45318;SDS011;31057;48.498;32.260;2023-01-08T09:34:13;32.90;;;11.50;;
45318;SDS011;31057;48.498;32.260;2023-01-08T09:36:16;22.27;;;10.75;;
45318;SDS011;31057;48.498;32.260;2023-01-08T09:38:18;24.13;;;10.27;;
45318;SDS011;31057;48.498;32.260;2023-01-08T09:42:24;17.27;;;7.70;;
45318;SDS011;31057;48.498;32.260;2023-01-08T09:44:29;23.20;;;10.02;;
45318;SDS011;31057;48.498;32.260;2023-01-08T09:46:36;22.23;;;10.13;;
45318;SDS011;31057;48.498;32.260;2023-01-08T09:48:39;20.33;;;8.13;;
45318;SDS011;31057;48.498;32.260;2023-01-08T09:50:42;16.42;;;9.38;;
45318;SDS011;31057;48.498;32.260;2023-01-08T09:52:44;22.88;;;9.70;;
45318;SDS011;31057;48.498;32.260;2023-01-08T09:54:47;19.10;;;9.07;;
45318;SDS011;31057;48.498;32.260;2023-01-08T09:56:48;20.15;;;9.63;;
45318;SDS011;31057;48.498;32.260;2023-01-08T09:58:51;24.15;;;10.55;;
45318;SDS011;31057;48.498;32.260;2023-01-08T10:00:55;19.63;;;10.35;;
45318;SDS011;31057;48.498;32.260;2023-01-08T10:02:58;22.98;;;8.90;;
45318;SDS011;31057;48.498;32.260;2023-01-08T10:05:00;17.05;;;9.40;;
45318;SDS011;31057;48.498;32.260;2023-01-08T10:07:22;17.45;;;10.30;;
45318;SDS011;31057;48.498;32.260;2023-01-08T10:09:26;20.38;;;9.93;;
45318;SDS011;31057;48.498;32.260;2023-01-08T10:11:37;23.52;;;11.18;;
45318;SDS011;31057;48.498;32.260;2023-01-08T10:13:47;19.70;;;9.88;;
45318;SDS011;31057;48.498;32.260;2023-01-08T10:15:52;19.00;;;10.20;;
45318;SDS011;31057;48.498;32.260;2023-01-08T10:20:24;21.00;;;9.85;;
45318;SDS011;31057;48.498;32.260;2023-01-08T10:22:27;21.88;;;8.85;;
45318;SDS011;31057;48.498;32.260;2023-01-08T10:24:35;14.77;;;8.70;;
45318;SDS011;31057;48.498;32.260;2023-01-08T10:26:39;19.10;;;10.07;;
45318;SDS011;31057;48.498;32.260;2023-01-08T10:28:41;18.27;;;8.55;;
45318;SDS011;31057;48.498;32.260;2023-01-08T10:32:46;18.77;;;8.85;;
45318;SDS011;31057;48.498;32.260;2023-01-08T10:34:55;26.65;;;10.18;;
45318;SDS011;31057;48.498;32.260;2023-01-08T10:36:58;19.58;;;9.70;;
45318;SDS011;31057;48.498;32.260;2023-01-08T10:39:02;26.65;;;11.23;;
45318;SDS011;31057;48.498;32.260;2023-01-08T10:41:08;23.33;;;9.98;;
45318;SDS011;31057;48.498;32.260;2023-01-08T10:45:17;19.55;;;8.85;;
45318;SDS011;31057;48.498;32.260;2023-01-08T10:47:23;15.73;;;7.53;;
45318;SDS011;31057;48.498;32.260;2023-01-08T10:51:33;18.42;;;9.45;;
45318;SDS011;31057;48.498;32.260;2023-01-08T10:55:37;16.35;;;8.43;;
45318;SDS011;31057;48.498;32.260;2023-01-08T10:57:40;16.52;;;7.50;;
45318;SDS011;31057;48.498;32.260;2023-01-08T11:03:59;15.75;;;8.50;;
45318;SDS011;31057;48.498;32.260;2023-01-08T11:06:24;18.27;;;9.38;;
45318;SDS011;31057;48.498;32.260;2023-01-08T11:08:31;21.77;;;10.07;;
45318;SDS011;31057;48.498;32.260;2023-01-08T11:10:35;21.63;;;9.95;;
45318;SDS011;31057;48.498;32.260;2023-01-08T11:12:38;14.85;;;8.48;;
45318;SDS011;31057;48.498;32.260;2023-01-08T11:14:41;16.75;;;8.95;;
45318;SDS011;31057;48.498;32.260;2023-01-08T11:16:46;23.63;;;10.63;;
45318;SDS011;31057;48.498;32.260;2023-01-08T11:18:49;16.08;;;7.82;;
45318;SDS011;31057;48.498;32.260;2023-01-08T11:20:52;17.20;;;9.55;;
45318;SDS011;31057;48.498;32.260;2023-01-08T11:23:13;18.02;;;9.18;;
45318;SDS011;31057;48.498;32.260;2023-01-08T11:25:26;19.38;;;9.38;;
45318;SDS011;31057;48.498;32.260;2023-01-08T11:27:31;20.08;;;10.68;;
45318;SDS011;31057;48.498;32.260;2023-01-08T11:29:42;21.20;;;11.13;;
45318;SDS011;31057;48.498;32.260;2023-01-08T11:34:14;16.73;;;9.70;;
45318;SDS011;31057;48.498;32.260;2023-01-08T11:36:42;15.98;;;9.07;;
45318;SDS011;31057;48.498;32.260;2023-01-08T11:38:50;15.95;;;9.30;;
45318;SDS011;31057;48.498;32.260;2023-01-08T11:40:53;17.33;;;9.60;;
45318;SDS011;31057;48.498;32.260;2023-01-08T11:43:10;25.20;;;10.45;;
45318;SDS011;31057;48.498;32.260;2023-01-08T11:52:31;20.52;;;9.38;;
45318;SDS011;31057;48.498;32.260;2023-01-08T11:59:19;17.77;;;9.57;;
45318;SDS011;31057;48.498;32.260;2023-01-08T12:01:32;16.00;;;9.60;;
45318;SDS011;31057;48.498;32.260;2023-01-08T14:16:14;26.63;;;14.13;;
45318;SDS011;31057;48.498;32.260;2023-01-08T14:18:17;21.67;;;11.57;;
45318;SDS011;31057;48.498;32.260;2023-01-08T14:20:36;20.23;;;12.38;;
45318;SDS011;31057;48.498;32.260;2023-01-08T14:22:40;22.92;;;12.65;;
45318;SDS011;31057;48.498;32.260;2023-01-08T14:24:43;22.88;;;12.32;;
45318;SDS011;31057;48.498;32.260;2023-01-08T14:26:55;24.58;;;12.88;;
45318;SDS011;31057;48.498;32.260;2023-01-08T14:28:59;26.33;;;12.40;;
45318;SDS011;31057;48.498;32.260;2023-01-08T14:31:02;21.52;;;12.20;;
45318;SDS011;31057;48.498;32.260;2023-01-08T14:33:09;26.85;;;11.38;;
45318;SDS011;31057;48.498;32.260;2023-01-08T14:35:13;20.95;;;11.50;;
45318;SDS011;31057;48.498;32.260;2023-01-08T14:37:21;19.52;;;11.30;;
45318;SDS011;31057;48.498;32.260;2023-01-08T14:39:25;20.13;;;11.55;;
45318;SDS011;31057;48.498;32.260;2023-01-08T14:41:34;33.65;;;12.30;;
45318;SDS011;31057;48.498;32.260;2023-01-08T14:43:58;23.30;;;11.88;;
45318;SDS011;31057;48.498;32.260;2023-01-08T14:46:00;24.10;;;12.30;;
45318;SDS011;31057;48.498;32.260;2023-01-08T14:50:16;24.30;;;12.63;;
45318;SDS011;31057;48.498;32.260;2023-01-08T14:52:20;23.13;;;12.55;;
45318;SDS011;31057;48.498;32.260;2023-01-08T14:54:25;26.27;;;12.05;;
45318;SDS011;31057;48.498;32.260;2023-01-08T14:56:32;25.48;;;12.07;;
45318;SDS011;31057;48.498;32.260;2023-01-08T14:58:36;22.60;;;12.02;;
45318;SDS011;31057;48.498;32.260;2023-01-08T15:00:40;28.60;;;12.70;;
45318;SDS011;31057;48.498;32.260;2023-01-08T15:02:43;24.05;;;12.27;;
45318;SDS011;31057;48.498;32.260;2023-01-08T15:04:47;26.00;;;12.82;;
45318;SDS011;31057;48.498;32.260;2023-01-08T15:07:04;25.23;;;13.15;;
45318;SDS011;31057;48.498;32.260;2023-01-08T15:09:25;24.52;;;13.50;;
45318;SDS011;31057;48.498;32.260;2023-01-08T15:11:30;25.92;;;15.23;;
45318;SDS011;31057;48.498;32.260;2023-01-08T15:13:35;32.67;;;14.80;;
45318;SDS011;31057;48.498;32.260;2023-01-08T15:15:45;32.45;;;13.73;;
45318;SDS011;31057;48.498;32.260;2023-01-08T15:18:01;28.02;;;12.93;;
45318;SDS011;31057;48.498;32.260;2023-01-08T15:20:07;23.70;;;12.23;;
45318;SDS011;31057;48.498;32.260;2023-01-08T15:22:18;33.08;;;13.77;;
45318;SDS011;31057;48.498;32.260;2023-01-08T15:24:29;29.02;;;15.15;;
45318;SDS011;31057;48.498;32.260;2023-01-08T15:26:39;30.27;;;14.60;;
45318;SDS011;31057;48.498;32.260;2023-01-08T15:28:47;29.27;;;13.80;;
45318;SDS011;31057;48.498;32.260;2023-01-08T15:30:58;32.03;;;14.68;;
45318;SDS011;31057;48.498;32.260;2023-01-08T15:33:15;35.15;;;16.23;;
45318;SDS011;31057;48.498;32.260;2023-01-08T15:35:20;42.28;;;18.50;;
45318;SDS011;31057;48.498;32.260;2023-01-08T15:37:26;37.63;;;16.33;;
45318;SDS011;31057;48.498;32.260;2023-01-08T15:39:28;34.30;;;16.27;;
45318;SDS011;31057;48.498;32.260;2023-01-08T15:41:37;38.08;;;17.95;;
45318;SDS011;31057;48.498;32.260;2023-01-08T15:43:58;31.70;;;16.95;;
45318;SDS011;31057;48.498;32.260;2023-01-08T15:46:00;40.67;;;18.17;;
45318;SDS011;31057;48.498;32.260;2023-01-08T15:48:10;29.52;;;16.52;;
45318;SDS011;31057;48.498;32.260;2023-01-08T15:50:19;32.60;;;17.45;;
45318;SDS011;31057;48.498;32.260;2023-01-08T15:52:27;50.22;;;18.05;;
45318;SDS011;31057;48.498;32.260;2023-01-08T15:54:30;33.72;;;16.10;;
45318;SDS011;31057;48.498;32.260;2023-01-08T15:56:35;42.88;;;17.77;;
45318;SDS011;31057;48.498;32.260;2023-01-08T15:58:37;39.75;;;16.42;;
45318;SDS011;31057;48.498;32.260;2023-01-08T16:00:39;42.10;;;15.73;;
45318;SDS011;31057;48.498;32.260;2023-01-08T16:02:46;40.92;;;15.90;;
45318;SDS011;31057;48.498;32.260;2023-01-08T16:04:50;34.38;;;15.95;;
45318;SDS011;31057;48.498;32.260;2023-01-08T16:06:54;36.75;;;16.58;;
45318;SDS011;31057;48.498;32.260;2023-01-08T16:08:56;28.20;;;14.52;;
45318;SDS011;31057;48.498;32.260;2023-01-08T16:11:00;28.92;;;15.18;;
45318;SDS011;31057;48.498;32.260;2023-01-08T16:13:02;30.23;;;15.80;;
45318;SDS011;31057;48.498;32.260;2023-01-08T16:15:05;36.38;;;16.58;;
45318;SDS011;31057;48.498;32.260;2023-01-08T16:17:08;42.95;;;16.45;;
45318;SDS011;31057;48.498;32.260;2023-01-08T16:19:10;35.30;;;17.67;;
45318;SDS011;31057;48.498;32.260;2023-01-08T16:21:12;38.25;;;17.35;;
45318;SDS011;31057;48.498;32.260;2023-01-08T16:23:14;30.90;;;15.02;;
45318;SDS011;31057;48.498;32.260;2023-01-08T16:25:16;41.40;;;16.83;;
45318;SDS011;31057;48.498;32.260;2023-01-08T16:27:18;42.58;;;19.75;;